createdAt,value
2022-12-01T00:02:21.813Z,100680.50
2022-12-01T00:04:49.736Z,100681.63
2022-12-01T00:07:16.475Z,100681.97
2022-12-01T00:09:42.937Z,100683.56
2022-12-01T00:12:09.569Z,100672.25
2022-12-01T00:14:36.384Z,100681.63
2022-12-01T00:17:03.257Z,100674.22
2022-12-01T00:19:29.757Z,100673.38
2022-12-01T00:21:57.800Z,100671.03
2022-12-01T00:24:24.325Z,100671.34
2022-12-01T00:26:50.871Z,100673.44
2022-12-01T00:29:17.425Z,100670.75
2022-12-01T00:31:43.969Z,100664.22
2022-12-01T00:34:24.476Z,100670.63
2022-12-01T00:36:51.231Z,100665.81
2022-12-01T00:39:19.128Z,100673.81
2022-12-01T00:41:48.128Z,100670.03
2022-12-01T00:44:14.639Z,100678.25
2022-12-01T00:46:41.304Z,100670.75
2022-12-01T00:49:11.974Z,100682.91
2022-12-01T00:51:38.459Z,100672.59
2022-12-01T00:54:05.161Z,100671.72
2022-12-01T00:56:33.192Z,100674.44
2022-12-01T00:58:59.693Z,100680.09
2022-12-01T01:01:26.265Z,100694.91
2022-12-01T01:03:52.879Z,100684.06
2022-12-01T01:06:19.362Z,100683.78
2022-12-01T01:08:45.898Z,100676.94
2022-12-01T01:11:12.445Z,100682.88
2022-12-01T01:13:40.371Z,100686.81
2022-12-01T01:16:10.320Z,100687.34
2022-12-01T01:18:36.791Z,100693.47
2022-12-01T01:21:05.697Z,100693.28
2022-12-01T01:23:32.874Z,100689.78
2022-12-01T01:26:02.375Z,100694.50
2022-12-01T01:28:30.729Z,100697.63
2022-12-01T01:30:58.742Z,100697.59
2022-12-01T01:33:25.556Z,100685.16
2022-12-01T01:35:52.046Z,100692.72
2022-12-01T01:38:18.541Z,100703.66
2022-12-01T01:40:45.920Z,100700.97
2022-12-01T01:43:14.798Z,100700.78
2022-12-01T01:45:41.832Z,100704.75
2022-12-01T01:48:11.752Z,100710.16
2022-12-01T01:50:38.583Z,100707.00
2022-12-01T01:53:09.026Z,100711.66
2022-12-01T01:55:36.531Z,100713.53
2022-12-01T01:58:09.292Z,100697.59
2022-12-01T02:00:37.013Z,100707.72
2022-12-01T02:03:03.970Z,100700.88
2022-12-01T02:05:34.437Z,100704.13
2022-12-01T02:08:02.731Z,100698.97
2022-12-01T02:10:40.166Z,100702.06
2022-12-01T02:13:20.968Z,100706.22
2022-12-01T02:15:56.167Z,100714.44
2022-12-01T02:18:29.411Z,100717.88
2022-12-01T02:21:23.062Z,100703.88
2022-12-01T02:24:12.230Z,100699.44
2022-12-01T02:26:46.728Z,100699.41
2022-12-01T02:29:51.781Z,100702.28
2022-12-01T02:32:29.413Z,100709.84
2022-12-01T02:34:58.806Z,100693.25
2022-12-01T02:37:33.806Z,100707.41
2022-12-01T02:40:06.158Z,100703.00
2022-12-01T02:42:39.803Z,100703.69
2022-12-01T02:45:12.903Z,100694.00
2022-12-01T02:47:43.664Z,100693.53
2022-12-01T02:50:11.644Z,100699.38
2022-12-01T02:52:39.926Z,100693.69
2022-12-01T02:55:06.870Z,100701.31
2022-12-01T02:57:33.410Z,100700.13
2022-12-01T03:00:02.842Z,100691.91
2022-12-01T03:02:35.877Z,100690.19
2022-12-01T03:05:08.447Z,100699.59
2022-12-01T03:07:46.843Z,100700.38
2022-12-01T03:10:19.975Z,100705.88
2022-12-01T03:12:57.731Z,100696.00
2022-12-01T03:15:32.396Z,100705.25
2022-12-01T03:18:06.776Z,100706.56
2022-12-01T03:20:40.976Z,100707.75
2022-12-01T03:23:12.040Z,100701.91
2022-12-01T03:25:42.228Z,100702.50
2022-12-01T03:28:21.139Z,100692.22
2022-12-01T03:30:52.541Z,100707.56
2022-12-01T03:33:24.927Z,100702.16
2022-12-01T03:35:58.690Z,100707.75
2022-12-01T03:38:26.583Z,100704.81
2022-12-01T03:40:59.208Z,100702.28
2022-12-01T03:43:32.099Z,100720.25
2022-12-01T03:46:04.074Z,100700.00
2022-12-01T03:48:31.406Z,100705.97
2022-12-01T03:51:10.989Z,100705.09
2022-12-01T03:53:49.686Z,100702.47
2022-12-01T03:56:20.204Z,100697.16
2022-12-01T03:58:49.944Z,100700.38
2022-12-01T04:01:16.523Z,100705.47
2022-12-01T04:03:45.634Z,100699.69
2022-12-01T04:06:13.638Z,100710.16
2022-12-01T04:08:40.300Z,100707.44
2022-12-01T04:11:07.016Z,100717.28
2022-12-01T04:13:33.477Z,100703.00
2022-12-01T04:16:00.203Z,100705.06
2022-12-01T04:18:26.846Z,100720.38
2022-12-01T04:20:53.353Z,100726.44
2022-12-01T04:23:21.216Z,100711.13
2022-12-01T04:25:47.673Z,100712.84
2022-12-01T04:28:14.261Z,100716.53
2022-12-01T04:30:40.715Z,100715.03
2022-12-01T04:33:07.219Z,100709.03
2022-12-01T04:35:33.719Z,100705.59
2022-12-01T04:38:00.282Z,100702.69
2022-12-01T04:40:28.167Z,100707.97
2022-12-01T04:42:56.132Z,100705.13
2022-12-01T04:45:22.646Z,100706.88
2022-12-01T04:47:52.237Z,100704.31
2022-12-01T04:50:18.856Z,100713.50
2022-12-01T04:52:45.329Z,100698.13
2022-12-01T04:55:11.992Z,100694.31
2022-12-01T04:57:39.829Z,100689.06
2022-12-01T05:00:07.652Z,100697.28
2022-12-01T05:02:34.203Z,100688.84
2022-12-01T05:05:00.939Z,100707.38
2022-12-01T05:07:27.480Z,100692.28
2022-12-01T05:09:54.050Z,100698.81
2022-12-01T05:12:20.595Z,100712.06
2022-12-01T05:14:51.702Z,100709.34
2022-12-01T05:17:18.227Z,100710.78
2022-12-01T05:19:47.951Z,100710.44
2022-12-01T05:22:14.967Z,100699.84
2022-12-01T05:24:41.557Z,100709.09
2022-12-01T05:27:08.016Z,100712.50
2022-12-01T05:29:34.489Z,100710.06
2022-12-01T05:32:02.492Z,100702.59
2022-12-01T05:34:29.119Z,100702.59
2022-12-01T05:36:55.605Z,100699.66
2022-12-01T05:39:22.097Z,100717.03
2022-12-01T05:41:48.692Z,100709.16
2022-12-01T05:44:15.152Z,100704.97
2022-12-01T05:46:41.675Z,100721.16
2022-12-01T05:49:09.506Z,100711.94
2022-12-01T05:51:36.101Z,100718.44
2022-12-01T05:54:03.123Z,100714.75
2022-12-01T05:56:29.754Z,100722.59
2022-12-01T05:58:56.278Z,100709.19
2022-12-01T06:01:22.991Z,100722.84
2022-12-01T06:03:49.530Z,100723.50
2022-12-01T06:06:17.416Z,100739.22
2022-12-01T06:08:46.559Z,100717.63
2022-12-01T06:11:13.123Z,100716.84
2022-12-01T06:13:39.658Z,100714.59
2022-12-01T06:16:07.077Z,100721.50
2022-12-01T06:18:37.409Z,100716.66
2022-12-01T06:21:06.363Z,100742.75
2022-12-01T06:23:34.587Z,100729.81
2022-12-01T06:26:01.439Z,100735.63
2022-12-01T06:28:27.948Z,100729.09
2022-12-01T06:31:00.994Z,100747.13
2022-12-01T06:33:29.759Z,100738.94
2022-12-01T06:35:59.980Z,100746.00
2022-12-01T06:38:32.688Z,100743.13
2022-12-01T06:41:06.588Z,100747.44
2022-12-01T06:43:35.674Z,100744.91
2022-12-01T06:46:02.991Z,100749.88
2022-12-01T06:48:29.622Z,100751.69
2022-12-01T06:50:57.169Z,100742.28
2022-12-01T06:53:23.676Z,100758.31
2022-12-01T06:55:50.242Z,100751.78
2022-12-01T06:58:18.759Z,100752.69
2022-12-01T07:00:51.786Z,100752.97
2022-12-01T07:03:18.672Z,100762.50
2022-12-01T07:05:45.344Z,100757.72
2022-12-01T07:08:11.865Z,100764.56
2022-12-01T07:10:38.359Z,100755.19
2022-12-01T07:13:04.911Z,100756.59
2022-12-01T07:15:32.866Z,100755.75
2022-12-01T07:17:59.343Z,100752.63
2022-12-01T07:20:25.910Z,100763.25
2022-12-01T07:22:54.040Z,100758.69
2022-12-01T07:25:20.598Z,100760.03
2022-12-01T07:27:47.079Z,100761.97
2022-12-01T07:30:14.131Z,100771.44
2022-12-01T07:32:41.998Z,100774.81
2022-12-01T07:35:08.846Z,100772.41
2022-12-01T07:37:35.306Z,100769.72
2022-12-01T07:40:01.863Z,100771.91
2022-12-01T07:42:28.360Z,100768.63
2022-12-01T07:44:54.835Z,100771.50
2022-12-01T07:47:21.339Z,100764.94
2022-12-01T07:49:49.458Z,100776.53
2022-12-01T07:52:16.164Z,100773.94
2022-12-01T07:54:42.683Z,100776.63
2022-12-01T07:57:09.339Z,100785.16
2022-12-01T07:59:35.838Z,100797.22
2022-12-01T08:02:02.410Z,100780.75
2022-12-01T08:04:29.055Z,100779.66
2022-12-01T08:06:57.020Z,100789.56
2022-12-01T08:09:23.516Z,100782.94
2022-12-01T08:11:49.980Z,100795.16
2022-12-01T08:14:16.898Z,100791.25
2022-12-01T08:16:43.457Z,100790.25
2022-12-01T08:19:10.246Z,100790.34
2022-12-01T08:21:36.841Z,100795.28
2022-12-01T08:24:05.447Z,100797.41
2022-12-01T08:26:32.400Z,100803.19
2022-12-01T08:28:58.948Z,100796.16
2022-12-01T08:31:28.485Z,100782.75
2022-12-01T08:33:55.322Z,100794.44
2022-12-01T08:36:22.680Z,100795.16
2022-12-01T08:38:50.881Z,100809.59
2022-12-01T08:41:19.263Z,100805.34
2022-12-01T08:44:01.722Z,100805.53
2022-12-01T08:46:31.253Z,100810.72
2022-12-01T08:48:58.205Z,100812.84
2022-12-01T08:51:25.378Z,100814.31
2022-12-01T08:53:52.563Z,100804.47
2022-12-01T08:56:23.044Z,100796.53
2022-12-01T08:58:49.880Z,100810.69
2022-12-01T09:01:17.331Z,100802.47
2022-12-01T09:03:44.529Z,100810.44
2022-12-01T09:06:15.606Z,100805.53
2022-12-01T09:11:24.274Z,100812.50
2022-12-01T09:13:54.536Z,100814.31
2022-12-01T09:16:21.827Z,100816.44
2022-12-01T09:18:48.438Z,100823.25
2022-12-01T09:21:17.093Z,100822.84
2022-12-01T09:23:44.044Z,100823.63
2022-12-01T09:26:13.875Z,100819.06
2022-12-01T09:28:42.000Z,100830.59
2022-12-01T09:31:10.167Z,100829.13
2022-12-01T09:33:37.054Z,100818.31
2022-12-01T09:36:05.873Z,100821.69
2022-12-01T09:38:34.203Z,100820.06
2022-12-01T09:41:04.480Z,100820.66
2022-12-01T09:43:38.853Z,100820.63
2022-12-01T09:46:13.219Z,100818.16
2022-12-01T09:48:42.798Z,100816.19
2022-12-01T09:51:13.495Z,100819.28
2022-12-01T09:53:42.031Z,100817.03
2022-12-01T09:56:19.574Z,100807.97
2022-12-01T09:58:48.055Z,100806.66
2022-12-01T10:01:23.052Z,100801.59
2022-12-01T10:03:57.420Z,100811.03
2022-12-01T10:06:31.803Z,100807.31
2022-12-01T10:09:05.389Z,100809.09
2022-12-01T10:11:35.217Z,100796.50
2022-12-01T10:14:04.223Z,100801.81
2022-12-01T10:16:37.413Z,100803.59
2022-12-01T10:19:11.357Z,100810.22
2022-12-01T10:21:52.722Z,100811.88
2022-12-01T10:24:31.956Z,100804.47
2022-12-01T10:27:10.767Z,100807.00
2022-12-01T10:29:47.707Z,100808.59
2022-12-01T10:32:19.277Z,100797.78
2022-12-01T10:34:47.354Z,100795.63
2022-12-01T10:37:18.710Z,100799.38
2022-12-01T10:39:48.274Z,100792.69
2022-12-01T10:42:19.393Z,100777.16
2022-12-01T10:44:46.489Z,100795.81
2022-12-01T10:47:20.131Z,100788.34
2022-12-01T10:49:47.131Z,100782.25
2022-12-01T10:52:31.833Z,100783.53
2022-12-01T10:54:58.385Z,100785.47
2022-12-01T10:57:45.453Z,100791.19
2022-12-01T11:00:57.520Z,100799.03
2022-12-01T11:03:21.799Z,100790.72
2022-12-01T11:05:52.359Z,100781.94
2022-12-01T11:08:23.002Z,100780.88
2022-12-01T11:10:50.538Z,100768.91
2022-12-01T11:13:22.123Z,100790.63
2022-12-01T11:15:52.493Z,100781.28
2022-12-01T11:18:24.105Z,100781.66
2022-12-01T11:21:08.752Z,100782.16
2022-12-01T11:23:36.943Z,100778.81
2022-12-01T11:26:10.831Z,100785.75
2022-12-01T11:28:43.053Z,100784.81
2022-12-01T11:31:10.773Z,100772.63
2022-12-01T11:33:45.424Z,100775.44
2022-12-01T11:36:21.745Z,100771.41
2022-12-01T11:38:49.189Z,100775.22
2022-12-01T11:41:30.956Z,100765.06
2022-12-01T11:44:01.772Z,100772.31
2022-12-01T11:46:32.716Z,100764.44
2022-12-01T11:49:01.057Z,100762.19
2022-12-01T11:51:30.671Z,100769.28
2022-12-01T11:54:06.627Z,100771.13
2022-12-01T12:03:30.174Z,100749.06
2022-12-01T12:06:38.827Z,100762.78
2022-12-01T12:09:13.904Z,100754.44
2022-12-01T12:11:53.068Z,100755.75
2022-12-01T12:14:28.285Z,100753.00
2022-12-01T12:17:11.716Z,100762.25
2022-12-01T12:20:08.611Z,100756.59
2022-12-01T12:22:54.940Z,100760.06
2022-12-01T12:25:30.113Z,100753.25
2022-12-01T12:28:12.945Z,100747.50
2022-12-01T12:37:24.516Z,100741.50
2022-12-01T12:40:06.856Z,100742.78
2022-12-01T12:42:48.189Z,100740.94
2022-12-01T12:45:22.640Z,100736.44
2022-12-01T12:48:02.770Z,100743.16
2022-12-01T12:50:37.078Z,100736.75
2022-12-01T12:53:10.548Z,100730.75
2022-12-01T12:55:44.037Z,100733.34
2022-12-01T12:58:14.829Z,100739.13
2022-12-01T13:00:46.271Z,100728.09
2022-12-01T13:03:18.019Z,100730.19
2022-12-01T13:05:51.136Z,100730.97
2022-12-01T13:08:22.753Z,100720.53
2022-12-01T13:10:57.910Z,100720.34
2022-12-01T13:13:29.834Z,100726.94
2022-12-01T13:15:58.866Z,100721.00
2022-12-01T13:18:32.753Z,100722.59
2022-12-01T13:21:02.487Z,100719.16
2022-12-01T13:23:29.435Z,100716.94
2022-12-01T13:26:00.357Z,100722.00
2022-12-01T13:28:31.137Z,100716.94
2022-12-01T13:31:04.187Z,100707.72
2022-12-01T13:33:32.231Z,100712.72
2022-12-01T13:36:29.788Z,100709.91
2022-12-01T13:38:56.836Z,100705.19
2022-12-01T13:41:28.438Z,100712.19
2022-12-01T13:43:59.543Z,100712.13
2022-12-01T13:46:28.189Z,100704.22
2022-12-01T13:48:57.512Z,100706.94
2022-12-01T13:51:24.700Z,100704.34
2022-12-01T13:54:27.501Z,100703.38
2022-12-01T13:57:01.669Z,100697.22
2022-12-01T14:00:18.681Z,100697.16
2022-12-01T14:02:45.714Z,100697.44
2022-12-01T14:05:44.545Z,100704.50
2022-12-01T14:08:21.282Z,100707.28
2022-12-01T14:10:54.744Z,100699.69
2022-12-01T14:13:23.539Z,100705.44
2022-12-01T14:15:55.171Z,100701.56
2022-12-01T14:18:44.084Z,100707.81
2022-12-01T14:21:12.159Z,100699.69
2022-12-01T14:23:57.979Z,100705.41
2022-12-01T14:26:25.172Z,100708.63
2022-12-01T14:29:23.413Z,100705.50
2022-12-01T14:32:18.955Z,100703.41
2022-12-01T14:34:49.668Z,100704.81
2022-12-01T14:37:19.072Z,100689.69
2022-12-01T14:39:50.297Z,100690.19
2022-12-01T14:42:27.716Z,100696.03
2022-12-01T14:44:57.141Z,100696.16
2022-12-01T14:47:27.349Z,100701.47
2022-12-01T14:49:58.070Z,100709.56
2022-12-01T14:52:32.439Z,100707.78
2022-12-01T14:55:01.739Z,100694.47
2022-12-01T14:57:32.430Z,100696.94
2022-12-01T15:00:05.957Z,100691.47
2022-12-01T15:02:39.708Z,100700.84
2022-12-01T15:05:10.893Z,100707.31
2022-12-01T15:07:38.734Z,100701.53
2022-12-01T15:10:06.697Z,100692.78
2022-12-01T15:12:33.524Z,100700.00
2022-12-01T15:15:00.119Z,100698.59
2022-12-01T15:17:34.887Z,100696.47
2022-12-01T15:20:01.643Z,100697.38
2022-12-01T15:22:30.918Z,100696.84
2022-12-01T15:25:06.577Z,100699.22
2022-12-01T15:27:33.338Z,100697.06
2022-12-01T15:30:01.419Z,100704.00
2022-12-01T15:32:31.015Z,100710.41
2022-12-01T15:34:59.219Z,100705.97
2022-12-01T15:37:27.465Z,100708.00
2022-12-01T15:40:11.939Z,100704.88
2022-12-01T15:42:44.377Z,100709.63
2022-12-01T15:45:18.077Z,100721.84
2022-12-01T15:47:48.235Z,100717.28
2022-12-01T15:50:28.155Z,100728.03
2022-12-01T15:52:55.113Z,100734.53
2022-12-01T15:55:25.529Z,100736.34
2022-12-01T15:57:52.265Z,100735.59
2022-12-01T16:00:19.867Z,100743.47
2022-12-01T16:02:54.488Z,100729.13
2022-12-01T16:05:28.160Z,100731.97
2022-12-01T16:14:03.985Z,100731.19
2022-12-01T16:16:40.648Z,100720.91
2022-12-01T16:19:28.875Z,100706.44
2022-12-01T16:22:09.645Z,100708.28
2022-12-01T16:24:51.993Z,100706.44
2022-12-01T16:27:25.881Z,100685.75
2022-12-01T16:29:58.544Z,100703.66
2022-12-01T16:32:35.854Z,100702.41
2022-12-01T16:35:27.714Z,100687.09
2022-12-01T16:50:32.201Z,100692.38
2022-12-01T16:53:04.661Z,100696.25
2022-12-01T16:55:37.583Z,100701.03
2022-12-01T16:58:14.897Z,100713.22
2022-12-01T17:00:45.604Z,100697.28
2022-12-01T17:03:17.933Z,100714.56
2022-12-01T17:05:46.008Z,100715.16
2022-12-01T17:08:14.470Z,100698.03
2022-12-01T17:10:41.646Z,100715.47
2022-12-01T17:13:11.605Z,100718.44
2022-12-01T17:15:40.785Z,100721.16
2022-12-01T17:18:09.529Z,100706.47
2022-12-01T17:20:36.315Z,100710.97
2022-12-01T17:23:04.678Z,100716.09
2022-12-01T17:25:31.642Z,100722.44
2022-12-01T17:27:58.488Z,100728.53
2022-12-01T17:30:25.078Z,100721.78
2022-12-01T17:32:51.635Z,100731.13
2022-12-01T17:35:18.278Z,100735.34
2022-12-01T17:37:44.843Z,100724.03
2022-12-01T17:40:13.735Z,100721.47
2022-12-01T17:42:45.477Z,100721.75
2022-12-01T17:45:15.360Z,100717.00
2022-12-01T17:47:41.956Z,100730.06
2022-12-01T17:50:10.232Z,100720.06
2022-12-01T17:52:38.739Z,100703.22
2022-12-01T17:55:07.466Z,100717.72
2022-12-01T17:57:37.077Z,100724.91
2022-12-01T18:00:05.722Z,100727.66
2022-12-01T18:02:32.263Z,100729.78
2022-12-01T18:05:00.654Z,100733.66
2022-12-01T18:07:31.522Z,100735.16
2022-12-01T18:09:58.300Z,100745.63
2022-12-01T18:12:24.829Z,100743.84
2022-12-01T18:14:54.584Z,100725.66
2022-12-01T18:17:21.410Z,100729.00
2022-12-01T18:19:50.180Z,100742.91
2022-12-01T18:22:16.739Z,100747.50
2022-12-01T18:24:43.616Z,100739.91
2022-12-01T18:27:10.174Z,100729.31
2022-12-01T18:29:36.895Z,100724.38
2022-12-01T18:32:05.455Z,100722.78
2022-12-01T18:34:32.310Z,100733.47
2022-12-01T18:37:01.237Z,100735.69
2022-12-01T18:39:40.084Z,100735.06
2022-12-01T18:42:06.894Z,100739.25
2022-12-01T18:44:33.560Z,100726.81
2022-12-01T18:47:00.804Z,100744.56
2022-12-01T18:49:28.704Z,100744.63
2022-12-01T18:51:55.232Z,100735.28
2022-12-01T18:54:21.934Z,100739.09
2022-12-01T18:56:51.564Z,100736.03
2022-12-01T18:59:18.254Z,100736.56
2022-12-01T19:01:50.418Z,100738.75
2022-12-01T19:04:17.233Z,100733.81
2022-12-01T19:06:45.914Z,100732.63
2022-12-01T19:09:13.667Z,100728.78
2022-12-01T19:11:40.869Z,100732.47
2022-12-01T19:14:08.534Z,100716.66
2022-12-01T19:16:35.192Z,100727.81
2022-12-01T19:19:02.839Z,100733.00
2022-12-01T19:21:29.760Z,100723.31
2022-12-01T19:23:58.458Z,100722.06
2022-12-01T19:26:24.997Z,100727.06
2022-12-01T19:28:54.163Z,100737.34
2022-12-01T19:31:23.280Z,100728.97
2022-12-01T19:33:52.205Z,100714.97
2022-12-01T19:36:22.331Z,100709.25
2022-12-01T19:38:50.863Z,100716.53
2022-12-01T19:41:20.438Z,100707.34
2022-12-01T19:43:47.206Z,100716.56
2022-12-01T19:46:16.850Z,100726.59
2022-12-01T19:48:43.568Z,100736.19
2022-12-01T19:51:16.345Z,100734.06
2022-12-01T19:53:43.265Z,100725.31
2022-12-01T19:56:10.251Z,100715.16
2022-12-01T19:58:38.180Z,100735.34
2022-12-01T20:01:07.091Z,100728.22
2022-12-01T20:03:33.935Z,100724.84
2022-12-01T20:06:02.002Z,100724.97
2022-12-01T20:08:28.684Z,100738.31
2022-12-01T20:10:55.156Z,100739.03
2022-12-01T20:13:25.625Z,100737.00
2022-12-01T20:15:53.964Z,100717.00
2022-12-01T20:18:23.408Z,100715.09
2022-12-01T20:20:56.439Z,100709.78
2022-12-01T20:23:28.849Z,100717.16
2022-12-01T20:26:19.180Z,100719.69
2022-12-01T20:32:08.008Z,100712.22
2022-12-01T20:39:04.829Z,100736.09
2022-12-01T21:09:40.746Z,100711.50
2022-12-01T21:12:13.260Z,100724.94
2022-12-01T21:14:44.469Z,100726.19
2022-12-01T21:17:28.991Z,100734.03
2022-12-01T21:20:08.623Z,100731.91
2022-12-01T21:22:36.046Z,100719.28
2022-12-01T21:25:12.095Z,100739.00
2022-12-01T21:27:38.579Z,100727.63
2022-12-01T21:30:15.624Z,100718.06
2022-12-01T21:32:44.278Z,100723.06
2022-12-01T21:35:17.123Z,100723.03
2022-12-01T21:37:44.286Z,100722.31
2022-12-01T21:40:18.835Z,100718.03
2022-12-01T21:42:45.743Z,100723.84
2022-12-01T21:45:22.034Z,100726.84
2022-12-01T21:47:48.594Z,100700.38
2022-12-01T21:50:19.691Z,100717.09
2022-12-01T21:53:10.497Z,100713.19
2022-12-01T21:55:40.126Z,100715.19
2022-12-01T21:58:27.421Z,100703.41
2022-12-01T22:00:59.552Z,100707.50
2022-12-01T22:03:29.776Z,100703.66
2022-12-01T22:06:27.875Z,100699.91
2022-12-01T22:08:48.191Z,100695.47
2022-12-01T22:11:18.042Z,100688.53
2022-12-01T22:13:46.748Z,100690.84
2022-12-01T22:16:18.830Z,100684.75
2022-12-01T22:18:49.237Z,100685.84
2022-12-01T22:21:41.106Z,100680.38
2022-12-01T22:24:35.329Z,100678.50
2022-12-01T22:27:29.679Z,100676.16
2022-12-01T22:30:01.630Z,100669.41
2022-12-01T22:32:37.806Z,100681.75
2022-12-01T22:35:34.659Z,100666.84
2022-12-01T22:38:20.622Z,100673.78
2022-12-01T22:40:55.052Z,100673.53
2022-12-01T22:43:27.953Z,100672.00
2022-12-01T22:46:20.346Z,100680.00
2022-12-01T22:48:50.992Z,100687.28
2022-12-01T22:51:30.125Z,100680.25
2022-12-01T22:54:37.967Z,100680.16
2022-12-01T22:57:39.861Z,100668.84
2022-12-01T23:00:16.752Z,100682.94
2022-12-01T23:02:43.389Z,100689.22
2022-12-01T23:05:22.072Z,100695.69
2022-12-01T23:07:48.697Z,100683.03
2022-12-01T23:10:17.929Z,100687.97
2022-12-01T23:12:45.904Z,100674.69
2022-12-01T23:15:23.437Z,100672.38
2022-12-01T23:17:50.537Z,100657.56
2022-12-01T23:20:36.858Z,100671.47
2022-12-01T23:23:08.044Z,100670.28
2022-12-01T23:25:35.218Z,100664.00
2022-12-01T23:28:05.651Z,100664.63
2022-12-01T23:30:32.209Z,100662.47
2022-12-01T23:33:22.080Z,100663.88
2022-12-01T23:35:55.061Z,100663.69
2022-12-01T23:38:23.904Z,100665.41
2022-12-01T23:40:52.658Z,100652.75
2022-12-01T23:43:21.545Z,100643.53
2022-12-01T23:45:55.773Z,100662.38
2022-12-01T23:48:28.899Z,100656.75
2022-12-01T23:50:56.789Z,100648.69
2022-12-01T23:53:27.383Z,100646.66
2022-12-01T23:55:54.388Z,100648.63
2022-12-01T23:58:20.869Z,100637.69
